Time;durP1;ratioP1;P1;durP2;ratioP2;P2;SDS_P1;SDS_P2;PMS_P1;PMS_P2;Temp;Humidity;BMP_temperature;BMP_pressure;BME280_temperature;BME280_humidity;BME280_pressure;Samples;Min_cycle;Max_cycle;Signal;HPM_P1;HPM_P2
2022/01/27 00:02:56;;;;;;;;;;;;;;;;;;5051170;28;19959;-76
2022/01/27 00:05:25;;;;;;;;;;;;;;;;;;5051021;28;19913;-76
2022/01/27 00:10:52;;;;;;;;;;;;;;;;;;5052130;28;19943;-76
2022/01/27 00:13:19;;;;;;;;;;;;;;;;;;5051931;28;20364;-76
2022/01/27 00:15:46;;;;;;;;;;;;;;;;;;5059102;28;20384;-76
2022/01/27 00:18:18;;;;;;;;;;;;;;;;;;5071518;28;19916;-76
2022/01/27 00:20:44;;;;;;;;;;;;;;;;;;5071520;28;19956;-76
2022/01/27 00:23:10;;;;;;;;;;;;;;;;;;5072918;28;20367;-76
2022/01/27 00:25:36;;;;;;;;;;;;;;;;;;5074532;28;20296;-76
2022/01/27 00:28:01;;;;;;;;;;;;;;;;;;5074721;28;19916;-76
2022/01/27 00:30:27;;;;;;;;;;;;;;;;;;5075127;28;19915;-76
2022/01/27 00:32:53;;;;;;;;;;;;;;;;;;5074910;28;20360;-75
2022/01/27 00:35:19;;;;;;;;;;;;;;;;;;5074972;28;19944;-76
2022/01/27 00:37:45;;;;;;;;;;;;;;;;;;5074746;28;19912;-76
2022/01/27 00:40:12;;;;;;;;;;;;;;;;;;5075068;28;19985;-76
2022/01/27 00:42:37;;;;;;;;;;;;;;;;;;5074949;28;19911;-76
2022/01/27 00:45:03;;;;;;;;;;;;;;;;;;5074794;28;19999;-75
2022/01/27 00:47:30;;;;;;;;;;;;;;;;;;5074312;28;19916;-76
2022/01/27 00:49:56;;;;;;;;;;;;;;;;;;5103330;28;20372;-76
2022/01/27 00:52:33;;;;;;;;;;;;;;;;;;5074772;28;19909;-75
2022/01/27 00:54:59;;;;;;;;;;;;;;;;;;5107182;28;19913;-76
2022/01/27 01:00:03;;;;;;;;;;;;;;;;;;5074096;28;20458;-76
2022/01/27 01:02:49;;;;;;;;;;;;;;;;;;5074997;28;19908;-76
2022/01/27 01:07:55;;;;;;;;;;;;;;;;;;5074384;28;20326;-76
2022/01/27 01:15:51;;;;;;;;;;;;;;;;;;5073720;28;19930;-75
2022/01/27 01:21:22;;;;;;;;;;;;;;;;;;5074404;28;19938;-76
2022/01/27 01:32:08;;;;;;;;;;;;;;;;;;5073935;28;19991;-75
2022/01/27 01:34:34;;;;;;;;;;;;;;;;;;5074383;28;19912;-76
2022/01/27 01:37:03;;;;;;;;;;;;;;;;;;5073513;28;19912;-76
2022/01/27 01:39:29;;;;;;;;;;;;;;;;;;5072346;28;19923;-75
2022/01/27 01:41:55;;;;;;;;;;;;;;;;;;5073665;28;19909;-76
2022/01/27 01:44:21;;;;;;;;;;;;;;;;;;5072091;28;20447;-76
2022/01/27 01:46:47;;;;;;;;;;;;;;;;;;5070915;28;19932;-76
2022/01/27 01:49:13;;;;;;;;;;;;;;;;;;5053525;28;19909;-76
2022/01/27 01:51:39;;;;;;;;;;;;;;;;;;5053655;28;19909;-76
2022/01/27 01:54:05;;;;;;;;;;;;;;;;;;5053334;28;19916;-75
2022/01/27 01:56:31;;;;;;;;;;;;;;;;;;5066916;28;20011;-76
2022/01/27 01:58:57;;;;;;;;;;;;;;;;;;5066267;28;19967;-76
2022/01/27 02:01:22;;;;;;;;;;;;;;;;;;5053423;28;19913;-76
2022/01/27 02:03:48;;;;;;;;;;;;;;;;;;5064064;28;20007;-76
2022/01/27 02:06:20;;;;;;;;;;;;;;;;;;5073304;28;19913;-76
2022/01/27 02:09:05;;;;;;;;;;;;;;;;;;5073220;28;19908;-76
2022/01/27 02:19:45;;;;;;;;;;;;;;;;;;5073154;28;19915;-76
2022/01/27 02:22:11;;;;;;;;;;;;;;;;;;5072819;28;19908;-76
2022/01/27 02:24:37;;;;;;;;;;;;;;;;;;5073308;28;19915;-76
2022/01/27 02:27:03;;;;;;;;;;;;;;;;;;5053876;28;19912;-76
2022/01/27 02:29:29;;;;;;;;;;;;;;;;;;5052918;28;19909;-76
2022/01/27 02:31:55;;;;;;;;;;;;;;;;;;5066070;28;20379;-76
2022/01/27 02:34:20;;;;;;;;;;;;;;;;;;5072558;28;19919;-76
2022/01/27 02:36:46;;;;;;;;;;;;;;;;;;5072002;28;19920;-76
2022/01/27 02:39:12;;;;;;;;;;;;;;;;;;5054210;28;19916;-76
2022/01/27 02:41:38;;;;;;;;;;;;;;;;;;5052607;28;19909;-76
2022/01/27 02:44:04;;;;;;;;;;;;;;;;;;5052380;28;19909;-76
2022/01/27 02:46:30;;;;;;;;;;;;;;;;;;5052715;28;20388;-76
2022/01/27 02:48:56;;;;;;;;;;;;;;;;;;5069815;28;19916;-76
2022/01/27 02:51:22;;;;;;;;;;;;;;;;;;5072634;28;19915;-76
2022/01/27 02:53:48;;;;;;;;;;;;;;;;;;5072111;28;19912;-75
2022/01/27 02:56:14;;;;;;;;;;;;;;;;;;5071696;28;19970;-76
2022/01/27 02:58:40;;;;;;;;;;;;;;;;;;5087030;28;20289;-76
2022/01/27 03:01:06;;;;;;;;;;;;;;;;;;5052364;28;19909;-76
2022/01/27 03:03:31;;;;;;;;;;;;;;;;;;5052658;28;19909;-76
2022/01/27 03:05:57;;;;;;;;;;;;;;;;;;5060178;28;19958;-76
2022/01/27 03:08:23;;;;;;;;;;;;;;;;;;5072231;28;19908;-76
2022/01/27 03:10:49;;;;;;;;;;;;;;;;;;5071097;28;19912;-76
2022/01/27 03:13:15;;;;;;;;;;;;;;;;;;5072327;28;19912;-75
2022/01/27 03:15:41;;;;;;;;;;;;;;;;;;5072035;28;19928;-76
2022/01/27 03:18:07;;;;;;;;;;;;;;;;;;5070891;28;20287;-76
2022/01/27 03:20:34;;;;;;;;;;;;;;;;;;5071244;28;19916;-76
2022/01/27 03:22:59;;;;;;;;;;;;;;;;;;5072025;28;19912;-75
2022/01/27 03:25:25;;;;;;;;;;;;;;;;;;5070913;28;19967;-76
2022/01/27 03:27:51;;;;;;;;;;;;;;;;;;5071820;28;19963;-76
2022/01/27 03:30:17;;;;;;;;;;;;;;;;;;5072029;28;19992;-76
2022/01/27 03:32:43;;;;;;;;;;;;;;;;;;5072165;28;19912;-76
2022/01/27 03:35:09;;;;;;;;;;;;;;;;;;5071516;28;19924;-76
2022/01/27 03:37:35;;;;;;;;;;;;;;;;;;5071771;28;20006;-76
2022/01/27 03:40:01;;;;;;;;;;;;;;;;;;5070448;28;19909;-76
2022/01/27 03:42:28;;;;;;;;;;;;;;;;;;5071853;28;19916;-76
2022/01/27 03:44:54;;;;;;;;;;;;;;;;;;5071983;28;20389;-75
2022/01/27 03:47:20;;;;;;;;;;;;;;;;;;5071974;28;19921;-76
2022/01/27 03:49:46;;;;;;;;;;;;;;;;;;5072075;28;19909;-76
2022/01/27 03:52:11;;;;;;;;;;;;;;;;;;5104361;28;19908;-76
2022/01/27 03:54:37;;;;;;;;;;;;;;;;;;5103920;28;19912;-75
2022/01/27 03:57:03;;;;;;;;;;;;;;;;;;5105094;28;19913;-76
2022/01/27 03:59:29;;;;;;;;;;;;;;;;;;5075690;28;19920;-75
2022/01/27 04:01:55;;;;;;;;;;;;;;;;;;5075839;28;19916;-76
2022/01/27 04:04:21;;;;;;;;;;;;;;;;;;5075743;28;19904;-76
2022/01/27 04:06:52;;;;;;;;;;;;;;;;;;5071961;28;20014;-76
2022/01/27 04:09:18;;;;;;;;;;;;;;;;;;5065983;28;19913;-76
2022/01/27 04:11:44;;;;;;;;;;;;;;;;;;5087675;28;19916;-76
2022/01/27 04:14:13;;;;;;;;;;;;;;;;;;5055343;28;19967;-76
2022/01/27 04:16:38;;;;;;;;;;;;;;;;;;5071075;28;19999;-75
2022/01/27 04:19:04;;;;;;;;;;;;;;;;;;5075289;28;19990;-76
2022/01/27 04:21:30;;;;;;;;;;;;;;;;;;5074867;28;20004;-76
2022/01/27 04:23:56;;;;;;;;;;;;;;;;;;5075318;28;20356;-76
2022/01/27 04:26:30;;;;;;;;;;;;;;;;;;5074760;28;19975;-75
2022/01/27 04:28:56;;;;;;;;;;;;;;;;;;5075348;28;19991;-76
2022/01/27 04:31:24;;;;;;;;;;;;;;;;;;5074997;28;19958;-75
2022/01/27 04:33:51;;;;;;;;;;;;;;;;;;5107734;28;19923;-76
2022/01/27 04:36:26;;;;;;;;;;;;;;;;;;5073821;28;19920;-75
2022/01/27 04:38:56;;;;;;;;;;;;;;;;;;5075135;28;19988;-76
2022/01/27 04:41:32;;;;;;;;;;;;;;;;;;5074833;28;19916;-76
2022/01/27 04:44:18;;;;;;;;;;;;;;;;;;5074885;28;19953;-75
2022/01/27 04:46:55;;;;;;;;;;;;;;;;;;5073216;28;19952;-76
2022/01/27 04:49:21;;;;;;;;;;;;;;;;;;5075100;28;19908;-76
2022/01/27 04:51:47;;;;;;;;;;;;;;;;;;5074499;28;19908;-76
2022/01/27 04:54:23;;;;;;;;;;;;;;;;;;5107282;28;19908;-75
2022/01/27 04:56:49;;;;;;;;;;;;;;;;;;5070349;28;19967;-75
2022/01/27 04:59:20;;;;;;;;;;;;;;;;;;5054594;28;19909;-76
2022/01/27 05:02:14;;;;;;;;;;;;;;;;;;5054592;28;19912;-76
2022/01/27 05:04:37;;;;;;;;;;;;;;;;;;5054054;28;19908;-75
2022/01/27 05:07:03;;;;;;;;;;;;;;;;;;5068219;28;20368;-75
2022/01/27 05:09:29;;;;;;;;;;;;;;;;;;5073997;28;19908;-75
2022/01/27 05:12:00;;;;;;;;;;;;;;;;;;5073084;28;20364;-75
2022/01/27 05:14:26;;;;;;;;;;;;;;;;;;5074078;28;20408;-77
2022/01/27 05:16:52;;;;;;;;;;;;;;;;;;5073882;28;19916;-76
2022/01/27 05:19:18;;;;;;;;;;;;;;;;;;5107296;28;19962;-75
2022/01/27 05:21:44;;;;;;;;;;;;;;;;;;5073713;28;20284;-76
2022/01/27 05:24:10;;;;;;;;;;;;;;;;;;5105756;28;19913;-76
2022/01/27 05:26:36;;;;;;;;;;;;;;;;;;5073958;28;19917;-75
2022/01/27 05:29:02;;;;;;;;;;;;;;;;;;5074252;28;19948;-76
2022/01/27 05:31:28;;;;;;;;;;;;;;;;;;5073577;28;19916;-76
2022/01/27 05:33:54;;;;;;;;;;;;;;;;;;5073865;28;19947;-76
2022/01/27 05:36:20;;;;;;;;;;;;;;;;;;5078370;28;19920;-77
2022/01/27 05:38:46;;;;;;;;;;;;;;;;;;5097373;28;19913;-76
2022/01/27 05:41:12;;;;;;;;;;;;;;;;;;5070340;28;20004;-76
2022/01/27 05:43:37;;;;;;;;;;;;;;;;;;5073698;28;19919;-76
2022/01/27 05:46:03;;;;;;;;;;;;;;;;;;5093903;28;20303;-76
2022/01/27 05:48:29;;;;;;;;;;;;;;;;;;5085794;28;19912;-75
2022/01/27 05:50:56;;;;;;;;;;;;;;;;;;5073598;28;19909;-76
2022/01/27 05:53:22;;;;;;;;;;;;;;;;;;5072844;28;19908;-76
2022/01/27 05:55:48;;;;;;;;;;;;;;;;;;5092806;28;20498;-75
2022/01/27 05:58:14;;;;;;;;;;;;;;;;;;5061747;28;19909;-75
2022/01/27 06:00:40;;;;;;;;;;;;;;;;;;5073036;28;19917;-76
2022/01/27 06:03:06;;;;;;;;;;;;;;;;;;5061044;28;20327;-76
2022/01/27 06:05:33;;;;;;;;;;;;;;;;;;5060917;28;20403;-75
2022/01/27 06:07:59;;;;;;;;;;;;;;;;;;5056984;28;19917;-75
2022/01/27 06:10:25;;;;;;;;;;;;;;;;;;5075594;28;20433;-76
2022/01/27 06:12:51;;;;;;;;;;;;;;;;;;5089861;28;19909;-75
2022/01/27 06:15:17;;;;;;;;;;;;;;;;;;5089715;28;19926;-75
2022/01/27 06:17:43;;;;;;;;;;;;;;;;;;5056582;28;19977;-76
2022/01/27 06:20:09;;;;;;;;;;;;;;;;;;5071000;28;20149;-75
2022/01/27 06:22:35;;;;;;;;;;;;;;;;;;5076050;28;19917;-77
2022/01/27 06:25:01;;;;;;;;;;;;;;;;;;5073340;28;19997;-75
2022/01/27 06:27:27;;;;;;;;;;;;;;;;;;5073150;28;20066;-74
2022/01/27 06:29:53;;;;;;;;;;;;;;;;;;5073311;28;20010;-75
2022/01/27 06:32:18;;;;;;;;;;;;;;;;;;5073684;28;19912;-75
2022/01/27 06:34:44;;;;;;;;;;;;;;;;;;5072502;28;20372;-74
2022/01/27 06:37:10;;;;;;;;;;;;;;;;;;5072699;28;19909;-74
2022/01/27 06:39:36;;;;;;;;;;;;;;;;;;5072934;28;19977;-74
2022/01/27 06:42:05;;;;;;;;;;;;;;;;;;5072545;28;19912;-75
2022/01/27 06:44:30;;;;;;;;;;;;;;;;;;5105517;28;20003;-75
2022/01/27 06:46:56;;;;;;;;;;;;;;;;;;5072204;28;19939;-74
2022/01/27 06:49:22;;;;;;;;;;;;;;;;;;5072607;28;20382;-75
2022/01/27 06:51:48;;;;;;;;;;;;;;;;;;5104959;28;19995;-75
2022/01/27 06:54:16;;;;;;;;;;;;;;;;;;5072501;28;20006;-75
2022/01/27 06:56:42;;;;;;;;;;;;;;;;;;5072191;28;19991;-75
2022/01/27 06:59:08;;;;;;;;;;;;;;;;;;5072790;28;19947;-75
2022/01/27 07:01:34;;;;;;;;;;;;;;;;;;5072282;28;19959;-78
2022/01/27 07:04:01;;;;;;;;;;;;;;;;;;5072105;28;19913;-76
2022/01/27 07:06:27;;;;;;;;;;;;;;;;;;5072549;28;19944;-76
2022/01/27 07:08:53;;;;;;;;;;;;;;;;;;5072234;28;19909;-76
2022/01/27 07:11:19;;;;;;;;;;;;;;;;;;5072433;28;19909;-76
2022/01/27 07:13:45;;;;;;;;;;;;;;;;;;5072007;28;19909;-76
2022/01/27 07:16:11;;;;;;;;;;;;;;;;;;5072010;28;19920;-76
2022/01/27 07:18:37;;;;;;;;;;;;;;;;;;5071918;28;19936;-76
2022/01/27 07:21:02;;;;;;;;;;;;;;;;;;5072448;28;19913;-76
2022/01/27 07:23:28;;;;;;;;;;;;;;;;;;5072390;28;20275;-75
2022/01/27 07:25:54;;;;;;;;;;;;;;;;;;5071884;28;19908;-75
2022/01/27 07:28:20;;;;;;;;;;;;;;;;;;5072307;28;19931;-75
2022/01/27 07:30:46;;;;;;;;;;;;;;;;;;5072563;28;19916;-76
2022/01/27 07:33:12;;;;;;;;;;;;;;;;;;5076499;28;19908;-76
2022/01/27 07:35:38;;;;;;;;;;;;;;;;;;5076158;28;19920;-76
2022/01/27 07:38:05;;;;;;;;;;;;;;;;;;5074676;28;20363;-76
2022/01/27 07:40:31;;;;;;;;;;;;;;;;;;5076321;28;19908;-75
2022/01/27 07:42:57;;;;;;;;;;;;;;;;;;5075933;28;19915;-76
2022/01/27 07:45:23;;;;;;;;;;;;;;;;;;5075719;28;19944;-76
2022/01/27 07:47:49;;;;;;;;;;;;;;;;;;5075771;28;19954;-76
2022/01/27 07:50:14;;;;;;;;;;;;;;;;;;5076465;28;20411;-76
2022/01/27 07:52:44;;;;;;;;;;;;;;;;;;5075709;28;19913;-76
2022/01/27 07:55:09;;;;;;;;;;;;;;;;;;5075363;28;19935;-76
2022/01/27 07:57:35;;;;;;;;;;;;;;;;;;5075981;28;20391;-76
2022/01/27 08:00:01;;;;;;;;;;;;;;;;;;5075155;28;19909;-75
2022/01/27 08:02:27;;;;;;;;;;;;;;;;;;5073462;28;19909;-75
2022/01/27 08:04:53;;;;;;;;;;;;;;;;;;5067418;28;20027;-75
2022/01/27 08:07:19;;;;;;;;;;;;;;;;;;5075280;28;19912;-76
2022/01/27 08:09:47;;;;;;;;;;;;;;;;;;5073507;28;19964;-75
2022/01/27 08:12:13;;;;;;;;;;;;;;;;;;5071033;28;19958;-75
2022/01/27 08:14:39;;;;;;;;;;;;;;;;;;5070044;28;19928;-76
2022/01/27 08:17:05;;;;;;;;;;;;;;;;;;5070557;28;19955;-76
2022/01/27 08:19:31;;;;;;;;;;;;;;;;;;5071229;28;19920;-76
2022/01/27 08:21:57;;;;;;;;;;;;;;;;;;5073105;28;20376;-76
2022/01/27 08:24:23;;;;;;;;;;;;;;;;;;5072736;28;19962;-76
2022/01/27 08:26:50;;;;;;;;;;;;;;;;;;5069987;28;19912;-76
2022/01/27 08:32:06;;;;;;;;;;;;;;;;;;5072129;28;20295;-76
2022/01/27 08:34:34;;;;;;;;;;;;;;;;;;5066885;28;19939;-76
2022/01/27 08:37:00;;;;;;;;;;;;;;;;;;5070511;28;20425;-76
2022/01/27 08:39:26;;;;;;;;;;;;;;;;;;5070638;28;19920;-76
2022/01/27 08:41:52;;;;;;;;;;;;;;;;;;5071217;28;19913;-76
2022/01/27 08:44:18;;;;;;;;;;;;;;;;;;5068219;28;19920;-76
2022/01/27 08:46:44;;;;;;;;;;;;;;;;;;5072243;28;20386;-76
2022/01/27 08:49:09;;;;;;;;;;;;;;;;;;5073222;28;19912;-76
2022/01/27 08:51:36;;;;;;;;;;;;;;;;;;5068917;28;19912;-75
2022/01/27 08:54:02;;;;;;;;;;;;;;;;;;5071880;28;19909;-76
2022/01/27 08:56:27;;;;;;;;;;;;;;;;;;5064329;28;19916;-76
2022/01/27 08:58:53;;;;;;;;;;;;;;;;;;5073111;28;20360;-76
2022/01/27 09:01:21;;;;;;;;;;;;;;;;;;5069817;28;19932;-76
2022/01/27 09:03:46;;;;;;;;;;;;;;;;;;5072104;28;19912;-76
2022/01/27 09:06:12;;;;;;;;;;;;;;;;;;5061489;28;19921;-78
2022/01/27 09:08:38;;;;;;;;;;;;;;;;;;5072386;28;19912;-76
2022/01/27 09:11:04;;;;;;;;;;;;;;;;;;5066771;28;19974;-76
2022/01/27 09:13:30;;;;;;;;;;;;;;;;;;5068704;28;19920;-76
2022/01/27 09:15:59;;;;;;;;;;;;;;;;;;5071876;28;20407;-76
2022/01/27 09:18:25;;;;;;;;;;;;;;;;;;5069441;28;19917;-76
2022/01/27 09:20:51;;;;;;;;;;;;;;;;;;5070871;28;19928;-75
2022/01/27 09:23:17;;;;;;;;;;;;;;;;;;5071188;28;19931;-76
2022/01/27 09:25:45;;;;;;;;;;;;;;;;;;5072434;28;20372;-76
2022/01/27 09:28:11;;;;;;;;;;;;;;;;;;5069407;28;20360;-75
2022/01/27 09:30:37;;;;;;;;;;;;;;;;;;5069292;28;19921;-75
2022/01/27 09:33:03;;;;;;;;;;;;;;;;;;5068061;28;19912;-76
2022/01/27 09:35:30;;;;;;;;;;;;;;;;;;5070857;28;19919;-75
2022/01/27 09:37:56;;;;;;;;;;;;;;;;;;5069329;28;20310;-81
2022/01/27 09:40:22;;;;;;;;;;;;;;;;;;5069576;28;19912;-75
2022/01/27 09:42:51;;;;;;;;;;;;;;;;;;5069472;28;20654;-75
2022/01/27 09:45:17;;;;;;;;;;;;;;;;;;5070513;28;20285;-75
2022/01/27 09:47:43;;;;;;;;;;;;;;;;;;5072307;28;19935;-76
2022/01/27 09:52:41;;;;;;;;;;;;;;;;;;5071769;28;19999;-75
2022/01/27 09:55:07;;;;;;;;;;;;;;;;;;5072369;28;19999;-76
2022/01/27 09:57:32;;;;;;;;;;;;;;;;;;5069801;28;20376;-75
2022/01/27 09:59:58;;;;;;;;;;;;;;;;;;5068457;28;19908;-75
2022/01/27 10:02:27;;;;;;;;;;;;;;;;;;5068208;28;19970;-83
2022/01/27 10:04:53;;;;;;;;;;;;;;;;;;5070251;28;19915;-75
2022/01/27 10:07:19;;;;;;;;;;;;;;;;;;5069223;28;19916;-74
2022/01/27 10:09:45;;;;;;;;;;;;;;;;;;5068408;28;19913;-75
2022/01/27 10:12:11;;;;;;;;;;;;;;;;;;5072079;28;19912;-75
2022/01/27 10:14:38;;;;;;;;;;;;;;;;;;5068282;28;20390;-74
2022/01/27 10:17:04;;;;;;;;;;;;;;;;;;5071372;28;20413;-75
2022/01/27 10:19:31;;;;;;;;;;;;;;;;;;5068172;28;20283;-75
2022/01/27 10:21:57;;;;;;;;;;;;;;;;;;5068425;28;20011;-75
2022/01/27 10:24:25;;;;;;;;;;;;;;;;;;5071368;28;20497;-75
2022/01/27 10:26:58;;;;;;;;;;;;;;;;;;5068203;28;19989;-75
2022/01/27 10:29:37;;;;;;;;;;;;;;;;;;5063749;28;19924;-75
2022/01/27 10:32:03;;;;;;;;;;;;;;;;;;5066708;28;20386;-75
2022/01/27 10:34:29;;;;;;;;;;;;;;;;;;5068224;28;19961;-75
2022/01/27 10:36:54;;;;;;;;;;;;;;;;;;5063336;28;20300;-75
2022/01/27 10:39:20;;;;;;;;;;;;;;;;;;5065269;28;20283;-75
2022/01/27 10:41:46;;;;;;;;;;;;;;;;;;5070688;28;19920;-74
2022/01/27 10:44:13;;;;;;;;;;;;;;;;;;5068242;28;19912;-74
2022/01/27 10:46:45;;;;;;;;;;;;;;;;;;5066235;28;19919;-76
2022/01/27 10:49:21;;;;;;;;;;;;;;;;;;5068920;28;19916;-78
2022/01/27 10:51:51;;;;;;;;;;;;;;;;;;5071599;28;20284;-78
2022/01/27 10:54:20;;;;;;;;;;;;;;;;;;5068425;28;19916;-74
2022/01/27 10:56:46;;;;;;;;;;;;;;;;;;5069651;28;19912;-78
2022/01/27 10:59:12;;;;;;;;;;;;;;;;;;5064647;28;19912;-75
2022/01/27 11:01:38;;;;;;;;;;;;;;;;;;5068221;28;19920;-77
2022/01/27 11:04:04;;;;;;;;;;;;;;;;;;5064387;28;19948;-75
2022/01/27 11:06:32;;;;;;;;;;;;;;;;;;5070190;28;20288;-74
2022/01/27 11:09:00;;;;;;;;;;;;;;;;;;5070748;28;19940;-71
2022/01/27 11:11:26;;;;;;;;;;;;;;;;;;5071866;28;20023;-78
2022/01/27 11:13:53;;;;;;;;;;;;;;;;;;5070016;28;19923;-77
2022/01/27 11:16:27;;;;;;;;;;;;;;;;;;5046644;28;21342;-77
2022/01/27 11:19:00;;;;;;;;;;;;;;;;;;5050139;28;19909;-77
2022/01/27 11:21:36;;;;;;;;;;;;;;;;;;5058475;28;19915;-76
2022/01/27 11:24:15;;;;;;;;;;;;;;;;;;5048202;28;19913;-77
2022/01/27 11:26:43;;;;;;;;;;;;;;;;;;5061524;28;19913;-77
2022/01/27 11:29:09;;;;;;;;;;;;;;;;;;5071360;28;19908;-76
2022/01/27 11:31:34;;;;;;;;;;;;;;;;;;5052393;28;20369;-77
2022/01/27 11:34:00;;;;;;;;;;;;;;;;;;5031760;28;19963;-76
2022/01/27 11:36:26;;;;;;;;;;;;;;;;;;5047074;28;19913;-77
2022/01/27 11:38:52;;;;;;;;;;;;;;;;;;5053886;28;20368;-76
2022/01/27 11:41:18;;;;;;;;;;;;;;;;;;5045793;28;19962;-76
2022/01/27 11:43:44;;;;;;;;;;;;;;;;;;5055901;28;19909;-77
2022/01/27 11:46:10;;;;;;;;;;;;;;;;;;5057393;28;19920;-77
2022/01/27 11:48:36;;;;;;;;;;;;;;;;;;5047844;28;19913;-77
2022/01/27 11:51:02;;;;;;;;;;;;;;;;;;5045237;28;20332;-77
2022/01/27 11:53:28;;;;;;;;;;;;;;;;;;5028852;28;19999;-76
2022/01/27 11:55:54;;;;;;;;;;;;;;;;;;5049997;28;19917;-77
2022/01/27 11:58:20;;;;;;;;;;;;;;;;;;5082764;28;20330;-77
2022/01/27 12:00:45;;;;;;;;;;;;;;;;;;5067671;28;19965;-76
2022/01/27 12:03:12;;;;;;;;;;;;;;;;;;5061516;28;19915;-77
2022/01/27 12:05:39;;;;;;;;;;;;;;;;;;5059209;28;19913;-77
2022/01/27 12:08:05;;;;;;;;;;;;;;;;;;5043769;28;20392;-77
2022/01/27 12:10:31;;;;;;;;;;;;;;;;;;5063733;28;19909;-76
2022/01/27 12:12:57;;;;;;;;;;;;;;;;;;5057280;28;19920;-76
2022/01/27 12:15:23;;;;;;;;;;;;;;;;;;5059485;28;20281;-76
2022/01/27 12:17:49;;;;;;;;;;;;;;;;;;5067679;28;19932;-76
2022/01/27 12:20:14;;;;;;;;;;;;;;;;;;5077372;28;19995;-76
2022/01/27 12:22:47;;;;;;;;;;;;;;;;;;5066546;28;20323;-77
2022/01/27 12:25:13;;;;;;;;;;;;;;;;;;5073527;28;19909;-77
2022/01/27 12:27:38;;;;;;;;;;;;;;;;;;5063617;28;19938;-76
2022/01/27 12:30:04;;;;;;;;;;;;;;;;;;5069929;28;20372;-76
2022/01/27 12:32:30;;;;;;;;;;;;;;;;;;5075158;28;19919;-76
2022/01/27 12:34:56;;;;;;;;;;;;;;;;;;5069048;28;19917;-78
2022/01/27 12:37:23;;;;;;;;;;;;;;;;;;5072928;28;19954;-77
2022/01/27 12:39:49;;;;;;;;;;;;;;;;;;5067436;28;20091;-76
2022/01/27 12:42:16;;;;;;;;;;;;;;;;;;5074543;28;19908;-76
2022/01/27 12:44:43;;;;;;;;;;;;;;;;;;5068938;28;19912;-74
2022/01/27 12:47:10;;;;;;;;;;;;;;;;;;5064517;28;19913;-76
2022/01/27 12:49:37;;;;;;;;;;;;;;;;;;5063238;28;19996;-77
2022/01/27 12:52:08;;;;;;;;;;;;;;;;;;5072898;28;19912;-76
2022/01/27 12:54:34;;;;;;;;;;;;;;;;;;5069305;28;20291;-76
2022/01/27 12:56:59;;;;;;;;;;;;;;;;;;5071023;28;19912;-76
2022/01/27 12:59:25;;;;;;;;;;;;;;;;;;5065170;28;20011;-76
2022/01/27 13:01:51;;;;;;;;;;;;;;;;;;5071016;28;19934;-77
2022/01/27 13:04:17;;;;;;;;;;;;;;;;;;5069664;28;19909;-77
2022/01/27 13:06:43;;;;;;;;;;;;;;;;;;5071368;28;19912;-76
2022/01/27 13:09:09;;;;;;;;;;;;;;;;;;5069770;28;19916;-76
2022/01/27 13:11:35;;;;;;;;;;;;;;;;;;5068343;28;20349;-77
2022/01/27 13:14:01;;;;;;;;;;;;;;;;;;5069814;28;19932;-76
2022/01/27 13:16:34;;;;;;;;;;;;;;;;;;5069173;28;20288;-76
2022/01/27 13:19:06;;;;;;;;;;;;;;;;;;5072011;28;20295;-76
2022/01/27 13:21:35;;;;;;;;;;;;;;;;;;5070984;28;19912;-78
2022/01/27 13:24:01;;;;;;;;;;;;;;;;;;5070254;28;20435;-76
2022/01/27 13:26:27;;;;;;;;;;;;;;;;;;5072516;28;19908;-77
2022/01/27 13:28:53;;;;;;;;;;;;;;;;;;5071157;28;19913;-76
2022/01/27 13:31:19;;;;;;;;;;;;;;;;;;5071236;28;20292;-76
2022/01/27 13:33:45;;;;;;;;;;;;;;;;;;5072265;28;19951;-76
2022/01/27 13:36:11;;;;;;;;;;;;;;;;;;5068275;28;19925;-76
2022/01/27 13:38:51;;;;;;;;;;;;;;;;;;5071579;28;20359;-83
2022/01/27 13:41:22;;;;;;;;;;;;;;;;;;5064711;28;19916;-77
2022/01/27 13:43:47;;;;;;;;;;;;;;;;;;5066340;28;19916;-76
2022/01/27 13:46:13;;;;;;;;;;;;;;;;;;5063846;28;19913;-77
2022/01/27 13:48:39;;;;;;;;;;;;;;;;;;5065692;28;20007;-76
2022/01/27 13:51:05;;;;;;;;;;;;;;;;;;5071572;28;19908;-77
2022/01/27 13:53:31;;;;;;;;;;;;;;;;;;5062086;28;20372;-79
2022/01/27 13:55:57;;;;;;;;;;;;;;;;;;5065965;28;19912;-76
2022/01/27 13:58:25;;;;;;;;;;;;;;;;;;5069875;28;19915;-74
2022/01/27 14:00:53;;;;;;;;;;;;;;;;;;5071851;28;19908;-77
2022/01/27 14:03:19;;;;;;;;;;;;;;;;;;5061816;28;20299;-75
2022/01/27 14:05:45;;;;;;;;;;;;;;;;;;5067073;28;19961;-75
2022/01/27 14:08:11;;;;;;;;;;;;;;;;;;5067951;28;20380;-77
2022/01/27 14:10:41;;;;;;;;;;;;;;;;;;5072556;28;19978;-74
2022/01/27 14:13:10;;;;;;;;;;;;;;;;;;5064587;28;19916;-77
2022/01/27 14:15:36;;;;;;;;;;;;;;;;;;5053895;28;20311;-76
2022/01/27 14:18:02;;;;;;;;;;;;;;;;;;5028844;28;19999;-77
2022/01/27 14:20:28;;;;;;;;;;;;;;;;;;5048347;28;19935;-76
2022/01/27 14:22:54;;;;;;;;;;;;;;;;;;5043076;28;19913;-76
2022/01/27 14:25:22;;;;;;;;;;;;;;;;;;5054567;28;19912;-76
2022/01/27 14:27:48;;;;;;;;;;;;;;;;;;5052961;28;20368;-78
2022/01/27 14:30:14;;;;;;;;;;;;;;;;;;5059354;28;20008;-76
2022/01/27 14:32:40;;;;;;;;;;;;;;;;;;5042961;28;19917;-76
2022/01/27 14:35:07;;;;;;;;;;;;;;;;;;5048549;28;20380;-77
2022/01/27 14:37:34;;;;;;;;;;;;;;;;;;5046633;28;19909;-76
2022/01/27 14:40:00;;;;;;;;;;;;;;;;;;5053838;28;20334;-76
2022/01/27 14:42:26;;;;;;;;;;;;;;;;;;5047150;28;19913;-76
2022/01/27 14:44:53;;;;;;;;;;;;;;;;;;5053385;28;19917;-76
2022/01/27 14:47:20;;;;;;;;;;;;;;;;;;5060577;28;19912;-76
2022/01/27 14:49:47;;;;;;;;;;;;;;;;;;5054717;28;20399;-76
2022/01/27 14:52:15;;;;;;;;;;;;;;;;;;5054854;28;19974;-76
2022/01/27 14:54:41;;;;;;;;;;;;;;;;;;5044815;28;20003;-76
2022/01/27 14:57:08;;;;;;;;;;;;;;;;;;5033561;28;20000;-76
2022/01/27 14:59:34;;;;;;;;;;;;;;;;;;5052034;28;19920;-77
2022/01/27 15:02:00;;;;;;;;;;;;;;;;;;5067705;28;19912;-76
2022/01/27 15:04:26;;;;;;;;;;;;;;;;;;5047554;28;19924;-77
2022/01/27 15:06:52;;;;;;;;;;;;;;;;;;5038471;28;19909;-77
2022/01/27 15:09:18;;;;;;;;;;;;;;;;;;5036800;28;19921;-77
2022/01/27 16:05:38;;;;;;;;;;;;;;;;;;5243088;22;19932;-77
2022/01/27 16:08:05;;;;;;;;;;;;;;;;;;5034442;28;19933;-77
2022/01/27 16:10:31;;;;;;;;;;;;;;;;;;5026552;28;19909;-77
2022/01/27 16:12:57;;;;;;;;;;;;;;;;;;5016108;28;19913;-76
2022/01/27 16:15:23;;;;;;;;;;;;;;;;;;5021601;28;20012;-77
2022/01/27 16:17:49;;;;;;;;;;;;;;;;;;5035766;28;19909;-77
2022/01/27 16:20:15;;;;;;;;;;;;;;;;;;5035731;28;20395;-77
2022/01/27 16:22:41;;;;;;;;;;;;;;;;;;5031041;28;19956;-76
2022/01/27 16:25:07;;;;;;;;;;;;;;;;;;5016161;28;19924;-76
2022/01/27 16:27:33;;;;;;;;;;;;;;;;;;5014333;28;19910;-76
2022/01/27 16:29:59;;;;;;;;;;;;;;;;;;5028765;28;19916;-77
2022/01/27 16:32:26;;;;;;;;;;;;;;;;;;5035157;28;20346;-76
2022/01/27 16:34:51;;;;;;;;;;;;;;;;;;5035665;28;19913;-76
2022/01/27 16:37:17;;;;;;;;;;;;;;;;;;5035430;28;20416;-76
2022/01/27 16:39:43;;;;;;;;;;;;;;;;;;5035208;28;19996;-76
2022/01/27 16:42:09;;;;;;;;;;;;;;;;;;5021496;28;19909;-76
2022/01/27 16:44:35;;;;;;;;;;;;;;;;;;5031451;28;20382;-74
2022/01/27 16:47:01;;;;;;;;;;;;;;;;;;5015946;28;19980;-76
2022/01/27 16:49:28;;;;;;;;;;;;;;;;;;5022128;28;19954;-78
2022/01/27 16:51:54;;;;;;;;;;;;;;;;;;5023417;28;19932;-77
2022/01/27 16:54:20;;;;;;;;;;;;;;;;;;5018792;28;19975;-77
2022/01/27 16:56:46;;;;;;;;;;;;;;;;;;5014229;28;19914;-76
2022/01/27 16:59:12;;;;;;;;;;;;;;;;;;5021408;28;19909;-77
2022/01/27 17:01:38;;;;;;;;;;;;;;;;;;5033329;28;19916;-77
2022/01/27 17:04:04;;;;;;;;;;;;;;;;;;5033729;28;19957;-77
2022/01/27 17:06:30;;;;;;;;;;;;;;;;;;5034298;28;19913;-76
2022/01/27 17:08:56;;;;;;;;;;;;;;;;;;5031545;28;19984;-76
2022/01/27 17:11:22;;;;;;;;;;;;;;;;;;5023502;28;19916;-76
2022/01/27 17:13:47;;;;;;;;;;;;;;;;;;5016289;28;19909;-76
2022/01/27 17:16:14;;;;;;;;;;;;;;;;;;5024059;28;20352;-76
2022/01/27 17:18:40;;;;;;;;;;;;;;;;;;5030168;28;19917;-77
2022/01/27 17:21:07;;;;;;;;;;;;;;;;;;5017916;28;20392;-77
2022/01/27 17:23:36;;;;;;;;;;;;;;;;;;5020600;28;19909;-76
2022/01/27 17:26:02;;;;;;;;;;;;;;;;;;5024418;28;19955;-77
2022/01/27 17:28:28;;;;;;;;;;;;;;;;;;5025508;28;19978;-79
2022/01/27 17:30:54;;;;;;;;;;;;;;;;;;5032244;28;19910;-78
2022/01/27 17:33:20;;;;;;;;;;;;;;;;;;5029670;28;20588;-79
2022/01/27 17:35:45;;;;;;;;;;;;;;;;;;5017595;28;19963;-76
2022/01/27 17:38:11;;;;;;;;;;;;;;;;;;5032667;28;19910;-76
2022/01/27 17:40:45;;;;;;;;;;;;;;;;;;5033905;28;19916;-76
2022/01/27 17:43:17;;;;;;;;;;;;;;;;;;5034244;28;19921;-76
2022/01/27 17:45:43;;;;;;;;;;;;;;;;;;5032561;28;20260;-76
2022/01/27 17:48:09;;;;;;;;;;;;;;;;;;5034288;28;19909;-76
2022/01/27 17:50:35;;;;;;;;;;;;;;;;;;5033027;28;20402;-76
2022/01/27 17:53:01;;;;;;;;;;;;;;;;;;5013374;28;20297;-76
2022/01/27 17:55:28;;;;;;;;;;;;;;;;;;5014010;28;19957;-76
2022/01/27 17:57:53;;;;;;;;;;;;;;;;;;5022714;28;20367;-77
2022/01/27 18:00:19;;;;;;;;;;;;;;;;;;5033812;28;19963;-76
2022/01/27 18:02:45;;;;;;;;;;;;;;;;;;5033363;28;20276;-76
2022/01/27 18:05:11;;;;;;;;;;;;;;;;;;5033775;28;20315;-76
2022/01/27 18:07:38;;;;;;;;;;;;;;;;;;5024027;28;19919;-76
2022/01/27 18:10:04;;;;;;;;;;;;;;;;;;5017450;28;19936;-76
2022/01/27 18:12:30;;;;;;;;;;;;;;;;;;5013243;28;19913;-79
2022/01/27 18:14:58;;;;;;;;;;;;;;;;;;5028877;28;20307;-75
2022/01/27 18:17:24;;;;;;;;;;;;;;;;;;5013094;28;20369;-76